AUR556 EGJJ-LFRH
Flight info
| Callsign | AUR556 |
|---|---|
| Flight time | 0h 30m |
| Altitude | 8000 |
| Route | DIN DCT LENSU |
| Aircraft | C208/L-SDFGR/C |
Departure
| Time | 2026-05-04 19:22 |
|---|---|
| Airport | Jersey Airport (EGJJ) |
Arrival
| Time | 2026-05-04 19:52 |
|---|---|
| Airport | Lorient South Brittany (Bretagne Sud) Airport (LFRH) |
| Time | Latitude | Longitude | Altitude | Speed | Heading |
|---|---|---|---|---|---|
| 2026-05-04 19:15 | 49.20391 | -2.19832 | 279 ft | 0 kts | 188° |
| 2026-05-04 19:18 | 49.20389 | -2.19848 | 279 ft | 6 kts | 319° |
| 2026-05-04 19:18 | 49.20406 | -2.19852 | 279 ft | 0 kts | 359° |
| 2026-05-04 19:18 | 49.20415 | -2.19858 | 279 ft | 6 kts | 325° |
| 2026-05-04 19:19 | 49.20483 | -2.19920 | 279 ft | 13 kts | 348° |
| 2026-05-04 19:19 | 49.20529 | -2.20050 | 279 ft | 14 kts | 288° |
| 2026-05-04 19:19 | 49.20629 | -2.20097 | 280 ft | 10 kts | 353° |
| 2026-05-04 19:19 | 49.20633 | -2.20098 | 280 ft | 0 kts | 353° |
| 2026-05-04 19:20 | 49.20638 | -2.20099 | 280 ft | 5 kts | 353° |
| 2026-05-04 19:20 | 49.20727 | -2.20114 | 279 ft | 17 kts | 2° |
| 2026-05-04 19:20 | 49.20755 | -2.20071 | 279 ft | 7 kts | 84° |
| 2026-05-04 19:20 | 49.20785 | -2.19691 | 282 ft | 64 kts | 83° |
| 2026-05-04 19:21 | 49.20850 | -2.18848 | 410 ft | 83 kts | 84° |
| 2026-05-04 19:21 | 49.20903 | -2.17912 | 576 ft | 93 kts | 83° |
| 2026-05-04 19:21 | 49.20927 | -2.16911 | 750 ft | 99 kts | 96° |
| 2026-05-04 19:21 | 49.20598 | -2.15912 | 827 ft | 113 kts | 123° |
| 2026-05-04 19:22 | 49.20034 | -2.15070 | 1017 ft | 113 kts | 139° |
| 2026-05-04 19:22 | 49.19370 | -2.14501 | 1259 ft | 108 kts | 153° |
| 2026-05-04 19:22 | 49.18692 | -2.14082 | 1461 ft | 108 kts | 153° |
| 2026-05-04 19:22 | 49.18092 | -2.13440 | 1617 ft | 102 kts | 118° |
| 2026-05-04 19:23 | 49.17599 | -2.12756 | 1954 ft | 92 kts | 141° |
| 2026-05-04 19:23 | 49.16994 | -2.12168 | 1862 ft | 124 kts | 139° |
| 2026-05-04 19:23 | 49.16285 | -2.11578 | 2177 ft | 112 kts | 152° |
| 2026-05-04 19:23 | 49.15500 | -2.11079 | 2124 ft | 132 kts | 150° |
| 2026-05-04 19:24 | 49.14778 | -2.10254 | 2231 ft | 126 kts | 124° |
| 2026-05-04 19:24 | 49.14287 | -2.09165 | 2329 ft | 128 kts | 137° |
| 2026-05-04 19:24 | 49.13443 | -2.08704 | 2435 ft | 131 kts | 168° |
| 2026-05-04 19:24 | 49.12529 | -2.08692 | 2543 ft | 131 kts | 179° |
| 2026-05-04 19:25 | 49.11621 | -2.08705 | 2674 ft | 130 kts | 177° |
| 2026-05-04 19:25 | 49.10726 | -2.08709 | 2825 ft | 127 kts | 176° |
| 2026-05-04 19:25 | 49.09840 | -2.08706 | 2976 ft | 127 kts | 177° |
| 2026-05-04 19:25 | 49.08957 | -2.08699 | 3126 ft | 127 kts | 177° |
| 2026-05-04 19:26 | 49.08086 | -2.08691 | 3277 ft | 127 kts | 177° |
| 2026-05-04 19:26 | 49.07203 | -2.08685 | 3426 ft | 127 kts | 177° |
| 2026-05-04 19:26 | 49.06319 | -2.08676 | 3580 ft | 127 kts | 177° |
| 2026-05-04 19:26 | 49.05434 | -2.08667 | 3728 ft | 127 kts | 176° |
| 2026-05-04 19:27 | 49.04553 | -2.08661 | 3878 ft | 126 kts | 176° |
| 2026-05-04 19:27 | 49.03675 | -2.08661 | 4029 ft | 126 kts | 176° |
| 2026-05-04 19:27 | 49.02794 | -2.08651 | 4181 ft | 126 kts | 176° |
| 2026-05-04 19:27 | 49.01923 | -2.08640 | 4334 ft | 127 kts | 176° |
| 2026-05-04 19:28 | 49.01034 | -2.08629 | 4491 ft | 127 kts | 176° |
| 2026-05-04 19:28 | 49.00148 | -2.08619 | 4647 ft | 127 kts | 175° |
| 2026-05-04 19:28 | 48.99260 | -2.08602 | 4801 ft | 128 kts | 176° |
| 2026-05-04 19:28 | 48.98371 | -2.08594 | 4950 ft | 128 kts | 176° |
| 2026-05-04 19:29 | 48.97487 | -2.08588 | 5095 ft | 127 kts | 176° |
| 2026-05-04 19:29 | 48.96609 | -2.08584 | 5243 ft | 126 kts | 176° |
| 2026-05-04 19:29 | 48.95733 | -2.08576 | 5392 ft | 126 kts | 175° |
| 2026-05-04 19:29 | 48.94860 | -2.08567 | 5543 ft | 126 kts | 176° |
| 2026-05-04 19:30 | 48.93984 | -2.08559 | 5696 ft | 126 kts | 176° |
| 2026-05-04 19:30 | 48.93109 | -2.08551 | 5850 ft | 126 kts | 176° |
| 2026-05-04 19:30 | 48.92141 | -2.08543 | 6021 ft | 126 kts | 176° |
| 2026-05-04 19:30 | 48.90371 | -2.08526 | 6336 ft | 127 kts | 176° |
| 2026-05-04 19:31 | 48.88590 | -2.08509 | 6626 ft | 129 kts | 176° |
| 2026-05-04 19:31 | 48.86795 | -2.08492 | 6919 ft | 128 kts | 176° |
| 2026-05-04 19:31 | 48.85017 | -2.08472 | 7212 ft | 127 kts | 176° |
| 2026-05-04 19:31 | 48.83247 | -2.08460 | 7508 ft | 126 kts | 176° |
| 2026-05-04 19:32 | 48.81495 | -2.08447 | 7807 ft | 126 kts | 175° |
| 2026-05-04 19:32 | 48.79717 | -2.08417 | 7975 ft | 134 kts | 177° |
| 2026-05-04 19:32 | 48.77788 | -2.08406 | 7980 ft | 142 kts | 176° |
| 2026-05-04 19:32 | 48.75812 | -2.08389 | 7978 ft | 145 kts | 178° |
| 2026-05-04 19:33 | 48.73801 | -2.08375 | 7977 ft | 145 kts | 176° |
| 2026-05-04 19:33 | 48.71780 | -2.08358 | 7976 ft | 146 kts | 176° |
| 2026-05-04 19:33 | 48.69743 | -2.08334 | 7976 ft | 146 kts | 176° |
| 2026-05-04 19:33 | 48.67702 | -2.08343 | 7974 ft | 147 kts | 177° |
| 2026-05-04 19:34 | 48.65665 | -2.08311 | 7974 ft | 145 kts | 177° |
| 2026-05-04 19:34 | 48.63640 | -2.08286 | 7971 ft | 145 kts | 177° |
| 2026-05-04 19:34 | 48.61622 | -2.08263 | 7973 ft | 146 kts | 177° |
| 2026-05-04 19:34 | 48.59586 | -2.08244 | 7974 ft | 147 kts | 176° |
| 2026-05-04 19:35 | 48.57749 | -2.09412 | 7964 ft | 150 kts | 224° |
| 2026-05-04 19:35 | 48.56250 | -2.11628 | 7968 ft | 151 kts | 222° |
| 2026-05-04 19:35 | 48.54742 | -2.13800 | 7969 ft | 151 kts | 222° |
| 2026-05-04 19:35 | 48.53210 | -2.15990 | 7969 ft | 151 kts | 220° |
| 2026-05-04 19:36 | 48.51683 | -2.18158 | 7969 ft | 149 kts | 222° |
| 2026-05-04 19:36 | 48.50196 | -2.20318 | 7981 ft | 149 kts | 221° |
| 2026-05-04 19:36 | 48.48718 | -2.22442 | 7982 ft | 148 kts | 222° |
| 2026-05-04 19:36 | 48.47237 | -2.24570 | 7986 ft | 147 kts | 222° |
| 2026-05-04 19:37 | 48.45750 | -2.26700 | 7981 ft | 148 kts | 221° |
| 2026-05-04 19:37 | 48.44256 | -2.28836 | 7983 ft | 147 kts | 222° |
| 2026-05-04 19:37 | 48.42762 | -2.30972 | 7982 ft | 148 kts | 221° |
| 2026-05-04 19:37 | 48.41268 | -2.33108 | 7989 ft | 148 kts | 221° |
| 2026-05-04 19:38 | 48.39768 | -2.35246 | 7989 ft | 148 kts | 221° |
| 2026-05-04 19:38 | 48.38257 | -2.37399 | 7991 ft | 150 kts | 221° |
| 2026-05-04 19:38 | 48.36753 | -2.39543 | 7990 ft | 148 kts | 221° |
| 2026-05-04 19:38 | 48.35267 | -2.41677 | 7995 ft | 148 kts | 223° |
| 2026-05-04 19:39 | 48.33808 | -2.43892 | 7991 ft | 150 kts | 222° |
| 2026-05-04 19:39 | 48.32341 | -2.46100 | 7990 ft | 149 kts | 222° |
| 2026-05-04 19:39 | 48.30870 | -2.48309 | 7988 ft | 150 kts | 222° |
| 2026-05-04 19:39 | 48.29398 | -2.50518 | 7991 ft | 150 kts | 223° |
| 2026-05-04 19:40 | 48.27931 | -2.52718 | 7991 ft | 149 kts | 222° |
| 2026-05-04 19:40 | 48.26460 | -2.54920 | 7991 ft | 148 kts | 223° |
| 2026-05-04 19:40 | 48.25019 | -2.57078 | 7996 ft | 148 kts | 223° |
| 2026-05-04 19:40 | 48.23567 | -2.59249 | 7998 ft | 147 kts | 222° |
| 2026-05-04 19:41 | 48.22123 | -2.61403 | 7992 ft | 146 kts | 223° |
| 2026-05-04 19:41 | 48.20687 | -2.63550 | 7992 ft | 146 kts | 222° |
| 2026-05-04 19:41 | 48.19231 | -2.65721 | 7998 ft | 147 kts | 221° |
| 2026-05-04 19:41 | 48.17777 | -2.67886 | 7998 ft | 147 kts | 223° |
| 2026-05-04 19:42 | 48.16328 | -2.70044 | 7996 ft | 147 kts | 222° |
| 2026-05-04 19:42 | 48.14883 | -2.72195 | 7996 ft | 146 kts | 223° |
| 2026-05-04 19:42 | 48.13461 | -2.74310 | 8001 ft | 146 kts | 222° |
| 2026-05-04 19:42 | 48.12011 | -2.76460 | 7998 ft | 147 kts | 222° |
| 2026-05-04 19:43 | 48.10557 | -2.78620 | 7995 ft | 147 kts | 222° |
| 2026-05-04 19:43 | 48.09106 | -2.80769 | 7994 ft | 147 kts | 223° |
| 2026-05-04 19:43 | 48.07658 | -2.82917 | 7991 ft | 147 kts | 221° |
| 2026-05-04 19:43 | 48.06169 | -2.85118 | 7764 ft | 157 kts | 222° |
| 2026-05-04 19:44 | 48.04586 | -2.87459 | 7380 ft | 162 kts | 223° |
| 2026-05-04 19:44 | 48.02978 | -2.89837 | 6999 ft | 162 kts | 224° |
| 2026-05-04 19:44 | 48.01365 | -2.92223 | 6603 ft | 163 kts | 224° |
| 2026-05-04 19:44 | 47.99749 | -2.94603 | 6202 ft | 163 kts | 224° |
| 2026-05-04 19:45 | 47.98127 | -2.96991 | 5787 ft | 164 kts | 224° |
| 2026-05-04 19:45 | 47.96531 | -2.99340 | 5390 ft | 161 kts | 224° |
| 2026-05-04 19:45 | 47.94943 | -3.01675 | 4985 ft | 159 kts | 224° |
| 2026-05-04 19:45 | 47.93363 | -3.03997 | 4576 ft | 159 kts | 224° |
| 2026-05-04 19:46 | 47.91778 | -3.06325 | 4165 ft | 160 kts | 224° |
| 2026-05-04 19:46 | 47.90209 | -3.08627 | 3831 ft | 157 kts | 225° |
| 2026-05-04 19:46 | 47.88655 | -3.10905 | 3528 ft | 157 kts | 225° |
| 2026-05-04 19:46 | 47.87099 | -3.13182 | 3226 ft | 156 kts | 225° |
| 2026-05-04 19:47 | 47.85554 | -3.15442 | 2916 ft | 156 kts | 225° |
| 2026-05-04 19:47 | 47.84005 | -3.17707 | 2607 ft | 156 kts | 225° |
| 2026-05-04 19:47 | 47.82604 | -3.20114 | 2291 ft | 154 kts | 253° |
| 2026-05-04 19:47 | 47.82235 | -3.21850 | 2119 ft | 154 kts | 251° |
| 2026-05-04 19:48 | 47.81849 | -3.23323 | 1969 ft | 152 kts | 250° |
| 2026-05-04 19:48 | 47.81456 | -3.24793 | 1816 ft | 153 kts | 249° |
| 2026-05-04 19:48 | 47.81056 | -3.26228 | 1662 ft | 152 kts | 249° |
| 2026-05-04 19:48 | 47.80656 | -3.27684 | 1501 ft | 151 kts | 249° |
| 2026-05-04 19:49 | 47.80258 | -3.29127 | 1348 ft | 150 kts | 249° |
| 2026-05-04 19:49 | 47.79861 | -3.30570 | 1192 ft | 151 kts | 249° |
| 2026-05-04 19:49 | 47.79465 | -3.32009 | 1039 ft | 150 kts | 249° |
| 2026-05-04 19:49 | 47.79076 | -3.33419 | 1005 ft | 143 kts | 249° |
| 2026-05-04 19:50 | 47.78704 | -3.34770 | 993 ft | 140 kts | 249° |
| 2026-05-04 19:50 | 47.78343 | -3.36098 | 989 ft | 137 kts | 250° |
| 2026-05-04 19:50 | 47.77980 | -3.37407 | 995 ft | 136 kts | 250° |
| 2026-05-04 19:50 | 47.77599 | -3.38732 | 864 ft | 142 kts | 245° |
| 2026-05-04 19:51 | 47.77080 | -3.39991 | 700 ft | 132 kts | 238° |
| 2026-05-04 19:51 | 47.76690 | -3.41045 | 499 ft | 105 kts | 251° |
| 2026-05-04 19:51 | 47.76478 | -3.42017 | 351 ft | 92 kts | 255° |
| 2026-05-04 19:51 | 47.76292 | -3.42890 | 232 ft | 86 kts | 252° |
| 2026-05-04 19:52 | 47.76114 | -3.43703 | 168 ft | 78 kts | 252° |
| 2026-05-04 19:52 | 47.75988 | -3.44304 | 170 ft | 36 kts | 252° |